createdAt,value
2022-12-18T00:02:43.756Z,7.48
2022-12-18T00:05:52.592Z,7.49
2022-12-18T00:08:57.914Z,7.77
2022-12-18T00:15:19.064Z,7.55
2022-12-18T00:18:22.409Z,7.42
2022-12-18T00:21:25.566Z,7.49
2022-12-18T00:24:30.553Z,7.16
2022-12-18T00:27:33.714Z,7.07
2022-12-18T00:30:37.009Z,6.83
2022-12-18T00:33:41.133Z,6.67
2022-12-18T00:36:44.423Z,6.67
2022-12-18T00:39:49.492Z,6.71
2022-12-18T00:42:52.648Z,6.97
2022-12-18T00:45:56.184Z,6.92
2022-12-18T00:48:59.562Z,6.25
2022-12-18T00:52:05.256Z,6.29
2022-12-18T00:55:08.794Z,6.57
2022-12-18T00:58:17.315Z,6.38
2022-12-18T01:01:21.288Z,6.36
2022-12-18T01:04:27.582Z,6.89
2022-12-18T01:07:30.829Z,7.07
2022-12-18T01:10:34.109Z,6.93
2022-12-18T01:13:37.694Z,6.26
2022-12-18T01:16:41.345Z,6.08
2022-12-18T01:19:44.751Z,6.44
2022-12-18T01:22:47.940Z,5.91
2022-12-18T01:25:53.874Z,5.82
2022-12-18T01:28:57.819Z,5.91
2022-12-18T01:32:01.239Z,5.71
2022-12-18T01:35:05.068Z,5.77
2022-12-18T01:38:08.369Z,5.92
2022-12-18T01:41:11.861Z,6.12
2022-12-18T01:44:53.077Z,6.37
2022-12-18T01:48:00.831Z,6.39
2022-12-18T01:51:04.208Z,6.39
2022-12-18T01:54:07.590Z,6.42
2022-12-18T01:57:10.931Z,5.89
2022-12-18T02:00:18.130Z,6.20
2022-12-18T02:03:21.714Z,5.64
2022-12-18T02:06:45.197Z,5.11
2022-12-18T02:09:49.570Z,5.22
2022-12-18T02:13:04.370Z,5.10
2022-12-18T02:16:42.040Z,4.95
2022-12-18T02:20:07.360Z,5.09
2022-12-18T02:23:53.065Z,5.36
2022-12-18T02:27:02.542Z,5.14
2022-12-18T02:30:06.684Z,4.96
2022-12-18T02:33:11.152Z,4.54
2022-12-18T02:36:15.720Z,4.26
2022-12-18T02:39:19.724Z,4.25
2022-12-18T02:42:23.562Z,4.40
2022-12-18T02:45:29.207Z,4.39
2022-12-18T02:48:34.888Z,4.57
2022-12-18T02:51:54.953Z,4.45
2022-12-18T02:55:04.523Z,4.43
2022-12-18T02:58:57.806Z,4.77
2022-12-18T03:02:09.913Z,5.15
2022-12-18T03:05:35.513Z,4.98
2022-12-18T03:08:45.873Z,4.27
2022-12-18T03:11:56.796Z,4.18
2022-12-18T03:15:20.592Z,4.13
2022-12-18T03:18:34.141Z,4.20
2022-12-18T03:21:51.190Z,4.09
2022-12-18T03:24:55.534Z,3.78
2022-12-18T03:28:01.493Z,3.61
2022-12-18T03:31:06.923Z,3.80
2022-12-18T03:34:26.895Z,3.64
2022-12-18T03:37:33.699Z,3.73
2022-12-18T03:40:47.208Z,3.95
2022-12-18T03:44:09.113Z,4.06
2022-12-18T03:47:17.527Z,3.83
2022-12-18T03:51:02.653Z,3.91
2022-12-18T03:54:07.492Z,3.85
2022-12-18T03:57:25.645Z,3.77
2022-12-18T04:00:30.417Z,3.85
2022-12-18T04:03:36.384Z,3.92
2022-12-18T04:06:40.857Z,3.58
2022-12-18T04:09:45.793Z,3.42
2022-12-18T04:12:49.152Z,3.56
2022-12-18T04:15:52.474Z,3.54
2022-12-18T04:18:56.042Z,3.30
2022-12-18T04:21:59.379Z,3.45
2022-12-18T04:25:02.584Z,3.61
2022-12-18T04:28:05.822Z,4.11
2022-12-18T04:31:09.090Z,3.82
2022-12-18T04:34:12.360Z,3.38
2022-12-18T04:37:15.848Z,3.30
2022-12-18T04:40:19.143Z,3.45
2022-12-18T04:43:22.628Z,3.48
2022-12-18T04:46:26.020Z,3.32
2022-12-18T04:49:29.345Z,3.23
2022-12-18T04:52:33.994Z,3.62
2022-12-18T04:55:37.130Z,3.84
2022-12-18T04:58:42.401Z,3.60
2022-12-18T05:01:45.681Z,3.68
2022-12-18T05:04:48.856Z,3.39
2022-12-18T05:07:52.049Z,3.33
2022-12-18T05:11:06.198Z,3.09
2022-12-18T05:14:09.394Z,3.47
2022-12-18T05:17:12.551Z,3.20
2022-12-18T05:20:15.767Z,3.07
2022-12-18T05:23:19.999Z,3.02
2022-12-18T05:26:23.993Z,3.28
2022-12-18T05:29:27.226Z,3.33
2022-12-18T05:32:30.565Z,2.92
2022-12-18T05:35:33.726Z,3.22
2022-12-18T05:38:39.360Z,2.76
2022-12-18T05:41:43.529Z,2.59
2022-12-18T05:44:47.413Z,2.96
2022-12-18T05:47:50.746Z,3.42
2022-12-18T05:50:53.984Z,3.43
2022-12-18T05:53:57.290Z,3.15
2022-12-18T05:57:00.726Z,3.06
2022-12-18T06:00:05.473Z,2.93
2022-12-18T06:03:13.706Z,2.69
2022-12-18T06:06:28.137Z,2.98
2022-12-18T06:09:31.483Z,3.04
2022-12-18T06:12:34.626Z,2.83
2022-12-18T06:15:41.519Z,2.63
2022-12-18T06:18:44.668Z,2.79
2022-12-18T06:21:48.702Z,2.28
2022-12-18T06:24:51.854Z,2.12
2022-12-18T06:27:55.284Z,2.74
2022-12-18T06:30:58.399Z,2.33
2022-12-18T06:34:04.636Z,2.14
2022-12-18T06:37:08.600Z,1.96
2022-12-18T06:40:12.206Z,2.27
2022-12-18T06:43:15.355Z,2.17
2022-12-18T06:46:18.993Z,1.93
2022-12-18T06:49:25.035Z,1.84
2022-12-18T06:52:30.574Z,1.98
2022-12-18T06:55:34.752Z,2.03
2022-12-18T06:58:37.926Z,2.15
2022-12-18T07:01:41.177Z,2.46
2022-12-18T07:04:44.755Z,2.70
2022-12-18T07:07:47.994Z,2.74
2022-12-18T07:10:55.910Z,2.85
2022-12-18T07:14:03.191Z,2.82
2022-12-18T07:17:06.579Z,2.95
2022-12-18T07:20:10.864Z,3.14
2022-12-18T07:23:16.396Z,2.43
2022-12-18T07:26:22.168Z,2.10
2022-12-18T07:29:25.440Z,2.04
2022-12-18T07:32:28.598Z,1.86
2022-12-18T07:35:34.017Z,1.98
2022-12-18T07:38:37.716Z,2.32
2022-12-18T07:41:46.778Z,2.41
2022-12-18T07:44:50.338Z,2.76
2022-12-18T07:47:53.474Z,3.01
2022-12-18T07:51:00.845Z,3.11
2022-12-18T07:54:04.054Z,3.13
2022-12-18T07:57:16.483Z,2.62
2022-12-18T08:00:30.698Z,2.52
2022-12-18T08:03:34.100Z,2.66
2022-12-18T08:06:37.604Z,2.48
2022-12-18T08:09:40.697Z,2.48
2022-12-18T08:12:43.924Z,2.55
2022-12-18T08:15:47.056Z,2.49
2022-12-18T08:18:50.665Z,2.61
2022-12-18T08:21:54.029Z,2.89
2022-12-18T08:24:57.318Z,3.18
2022-12-18T08:28:00.511Z,2.55
2022-12-18T08:31:03.841Z,2.60
2022-12-18T08:34:07.093Z,2.93
2022-12-18T08:37:10.321Z,2.81
2022-12-18T08:40:13.698Z,2.77
2022-12-18T08:43:17.387Z,2.95
2022-12-18T08:46:21.987Z,2.82
2022-12-18T08:49:25.207Z,3.03
2022-12-18T08:52:33.843Z,2.96
2022-12-18T08:55:37.046Z,3.02
2022-12-18T08:58:40.466Z,3.05
2022-12-18T09:01:43.817Z,3.09
2022-12-18T09:04:53.799Z,2.85
2022-12-18T09:08:00.418Z,2.98
2022-12-18T09:11:04.129Z,2.89
2022-12-18T09:14:07.450Z,2.55
2022-12-18T09:17:10.667Z,1.73
2022-12-18T09:20:13.821Z,1.71
2022-12-18T09:23:17.399Z,1.87
2022-12-18T09:26:22.600Z,2.36
2022-12-18T09:29:25.920Z,2.23
2022-12-18T09:32:29.105Z,1.89
2022-12-18T09:35:32.265Z,1.77
2022-12-18T09:38:36.242Z,1.83
2022-12-18T09:41:46.401Z,2.36
2022-12-18T09:44:56.287Z,2.62
2022-12-18T09:47:59.596Z,2.95
2022-12-18T09:51:08.035Z,3.17
2022-12-18T09:54:22.305Z,3.38
2022-12-18T09:57:26.339Z,3.55
2022-12-18T10:00:30.638Z,3.36
2022-12-18T10:03:33.989Z,2.73
2022-12-18T10:06:49.165Z,2.85
2022-12-18T10:10:08.495Z,2.98
2022-12-18T10:13:20.640Z,2.65
2022-12-18T10:16:45.588Z,2.72
2022-12-18T10:20:04.966Z,2.85
2022-12-18T10:23:29.428Z,2.81
2022-12-18T10:26:35.058Z,3.02
2022-12-18T10:29:38.284Z,2.87
2022-12-18T10:32:41.423Z,2.71
2022-12-18T10:35:47.871Z,2.59
2022-12-18T10:38:50.999Z,2.65
2022-12-18T10:42:18.518Z,2.51
2022-12-18T10:45:21.649Z,2.15
2022-12-18T10:48:26.020Z,1.95
2022-12-18T10:51:39.442Z,1.77
2022-12-18T10:54:53.161Z,1.72
2022-12-18T10:57:56.306Z,1.72
2022-12-18T11:01:11.526Z,1.44
2022-12-18T11:04:19.907Z,1.74
2022-12-18T11:07:23.114Z,1.55
2022-12-18T11:10:38.627Z,1.37
2022-12-18T11:13:43.603Z,1.56
2022-12-18T11:17:23.717Z,1.29
2022-12-18T11:20:26.755Z,1.52
2022-12-18T11:23:30.321Z,1.62
2022-12-18T11:26:36.951Z,1.86
2022-12-18T11:29:46.338Z,1.29
2022-12-18T11:33:12.017Z,1.24
2022-12-18T11:36:16.020Z,1.35
2022-12-18T11:39:30.903Z,1.23
2022-12-18T11:42:40.995Z,1.21
2022-12-18T11:46:01.803Z,1.30
2022-12-18T11:49:13.780Z,1.45
2022-12-18T11:52:29.019Z,1.37
2022-12-18T11:56:08.250Z,1.47
2022-12-18T11:59:40.281Z,1.20
2022-12-18T12:03:05.599Z,1.10
2022-12-18T12:06:38.950Z,0.91
2022-12-18T12:10:13.580Z,0.98
2022-12-18T12:13:27.096Z,0.86
2022-12-18T12:16:36.986Z,0.76
2022-12-18T12:19:58.502Z,0.84
2022-12-18T12:23:43.386Z,0.93
2022-12-18T12:27:07.859Z,1.06
2022-12-18T12:30:45.362Z,1.25
2022-12-18T12:34:03.331Z,1.35
2022-12-18T12:37:15.395Z,0.85
2022-12-18T12:40:50.854Z,0.67
2022-12-18T12:43:50.782Z,1.07
2022-12-18T12:46:58.275Z,1.15
2022-12-18T12:50:03.163Z,0.82
2022-12-18T12:53:11.205Z,1.14
2022-12-18T12:56:18.506Z,1.20
2022-12-18T12:59:58.587Z,1.25
2022-12-18T13:03:08.768Z,0.92
2022-12-18T13:06:34.074Z,0.72
2022-12-18T13:10:17.233Z,0.75
2022-12-18T13:13:24.251Z,1.02
2022-12-18T13:16:28.411Z,1.11
2022-12-18T13:19:33.079Z,1.28
2022-12-18T13:22:49.008Z,1.25
2022-12-18T13:25:56.863Z,1.38
2022-12-18T13:29:01.093Z,1.43
2022-12-18T13:32:04.564Z,1.61
2022-12-18T13:35:20.110Z,1.69
2022-12-18T13:38:37.896Z,1.41
2022-12-18T13:41:44.554Z,1.67
2022-12-18T13:44:48.426Z,2.17
2022-12-18T13:47:51.805Z,2.14
2022-12-18T13:51:09.115Z,2.29
2022-12-18T13:54:26.111Z,1.91
2022-12-18T13:57:31.450Z,2.44
2022-12-18T14:00:34.994Z,2.86
2022-12-18T14:03:38.429Z,2.97
2022-12-18T14:06:41.746Z,3.50
2022-12-18T14:09:51.232Z,3.60
2022-12-18T14:12:55.742Z,3.68
2022-12-18T14:15:59.756Z,3.87
2022-12-18T14:19:08.415Z,3.54
2022-12-18T14:22:20.684Z,3.62
2022-12-18T14:25:26.484Z,4.16
2022-12-18T14:28:32.193Z,4.18
2022-12-18T14:31:36.443Z,4.38
2022-12-18T14:34:42.012Z,4.43
2022-12-18T14:37:45.306Z,4.18
2022-12-18T14:40:48.776Z,4.44
2022-12-18T14:43:54.182Z,4.81
2022-12-18T14:46:57.579Z,4.90
2022-12-18T14:50:00.763Z,4.68
2022-12-18T14:53:04.212Z,5.00
2022-12-18T14:56:22.477Z,4.75
2022-12-18T14:59:26.792Z,5.04
2022-12-18T15:02:30.822Z,5.16
2022-12-18T15:05:34.071Z,5.51
2022-12-18T15:08:39.000Z,5.28
2022-12-18T15:11:42.234Z,5.70
2022-12-18T15:14:45.540Z,5.60
2022-12-18T15:17:48.772Z,5.53
2022-12-18T15:20:55.569Z,5.35
2022-12-18T15:23:58.795Z,5.63
2022-12-18T15:27:02.402Z,5.91
2022-12-18T15:30:11.736Z,6.11
2022-12-18T15:33:24.486Z,6.18
2022-12-18T15:36:27.786Z,6.23
2022-12-18T15:39:31.249Z,6.32
2022-12-18T15:42:34.560Z,6.18
2022-12-18T15:45:40.606Z,6.24
2022-12-18T15:48:46.138Z,6.46
2022-12-18T15:51:54.582Z,6.47
2022-12-18T15:54:57.716Z,6.28
2022-12-18T15:58:01.124Z,6.43
2022-12-18T16:01:04.466Z,6.45
2022-12-18T16:04:07.955Z,6.39
2022-12-18T16:07:15.341Z,6.39
2022-12-18T16:10:23.008Z,6.41
2022-12-18T16:13:26.289Z,6.81
2022-12-18T16:16:29.549Z,6.79
2022-12-18T16:19:34.125Z,6.87
2022-12-18T16:22:37.271Z,7.02
2022-12-18T16:25:40.629Z,7.14
2022-12-18T16:28:48.253Z,7.38
2022-12-18T16:31:52.066Z,7.36
2022-12-18T16:34:55.401Z,7.65
2022-12-18T16:37:58.530Z,7.84
2022-12-18T16:41:01.762Z,7.66
2022-12-18T16:44:05.615Z,8.32
2022-12-18T16:47:09.212Z,8.42
2022-12-18T16:50:13.623Z,8.69
2022-12-18T16:53:16.859Z,8.52
2022-12-18T16:56:20.614Z,8.52
2022-12-18T16:59:24.008Z,8.76
2022-12-18T17:02:28.571Z,8.63
2022-12-18T17:05:32.074Z,8.33
2022-12-18T17:08:35.318Z,8.60
2022-12-18T17:11:38.605Z,8.59
2022-12-18T17:14:41.850Z,8.91
2022-12-18T17:17:45.055Z,8.89
2022-12-18T17:20:48.172Z,8.58
2022-12-18T17:23:51.474Z,9.28
2022-12-18T17:26:54.787Z,9.50
2022-12-18T17:29:58.008Z,9.20
2022-12-18T17:33:01.219Z,9.21
2022-12-18T17:36:04.633Z,8.67
2022-12-18T17:39:08.297Z,9.25
2022-12-18T17:42:15.446Z,9.56
2022-12-18T17:45:20.932Z,9.56
2022-12-18T17:48:24.204Z,9.45
2022-12-18T17:51:28.191Z,9.69
2022-12-18T17:54:31.358Z,9.96
2022-12-18T17:57:34.940Z,10.27
2022-12-18T18:00:40.173Z,9.93
2022-12-18T18:03:44.027Z,10.26
2022-12-18T18:06:48.151Z,10.29
2022-12-18T18:09:51.402Z,10.42
2022-12-18T18:12:55.881Z,10.63
2022-12-18T18:15:59.647Z,10.56
2022-12-18T18:19:08.355Z,10.55
2022-12-18T18:22:11.601Z,10.18
2022-12-18T18:25:14.959Z,11.00
2022-12-18T18:28:18.433Z,11.34
2022-12-18T18:31:21.845Z,10.91
2022-12-18T18:34:31.178Z,11.18
2022-12-18T18:37:35.175Z,10.96
2022-12-18T18:40:38.337Z,11.48
2022-12-18T18:43:41.848Z,10.84
2022-12-18T18:46:45.646Z,11.50
2022-12-18T18:49:48.888Z,11.71
2022-12-18T18:52:52.488Z,12.23
2022-12-18T18:56:37.482Z,11.85
2022-12-18T18:59:24.446Z,12.43
2022-12-18T19:02:34.878Z,12.26
2022-12-18T19:05:40.719Z,12.20
2022-12-18T19:08:46.373Z,12.46
2022-12-18T19:11:49.610Z,12.80
2022-12-18T19:14:55.127Z,12.70
2022-12-18T19:17:58.317Z,12.69
2022-12-18T19:21:03.779Z,12.53
2022-12-18T19:24:07.578Z,13.17
2022-12-18T19:27:12.547Z,12.65
2022-12-18T19:30:15.698Z,13.21
2022-12-18T19:33:41.944Z,12.38
2022-12-18T19:36:42.715Z,12.90
2022-12-18T19:39:45.835Z,13.75
2022-12-18T19:42:49.060Z,13.33
2022-12-18T19:45:57.138Z,13.08
2022-12-18T19:49:01.125Z,13.16
2022-12-18T19:52:04.481Z,12.83
2022-12-18T19:55:08.131Z,13.12
2022-12-18T19:58:11.541Z,13.08
2022-12-18T20:01:16.855Z,12.77
2022-12-18T20:04:21.655Z,12.90
2022-12-18T20:07:24.907Z,13.02
2022-12-18T20:10:28.167Z,13.01
2022-12-18T20:13:32.382Z,12.88
2022-12-18T20:16:35.610Z,13.17
2022-12-18T20:19:38.916Z,13.23
2022-12-18T20:22:43.924Z,13.56
2022-12-18T20:25:47.179Z,13.24
2022-12-18T20:28:50.473Z,13.46
2022-12-18T20:31:53.811Z,13.33
2022-12-18T20:34:56.999Z,13.09
2022-12-18T20:38:00.915Z,13.90
2022-12-18T20:41:11.687Z,14.28
2022-12-18T20:44:22.860Z,14.68
2022-12-18T20:47:27.386Z,14.50
2022-12-18T20:50:30.590Z,15.24
2022-12-18T20:53:34.816Z,15.07
2022-12-18T20:56:37.952Z,15.17
2022-12-18T20:59:47.770Z,15.11
2022-12-18T21:02:51.669Z,14.86
2022-12-18T21:05:54.970Z,14.89
2022-12-18T21:08:59.079Z,14.70
2022-12-18T21:12:04.536Z,13.71
2022-12-18T21:15:10.233Z,13.53
2022-12-18T21:18:13.958Z,13.55
2022-12-18T21:21:20.668Z,12.93
2022-12-18T21:24:28.214Z,12.98
2022-12-18T21:27:36.041Z,13.21
2022-12-18T21:30:42.184Z,13.28
2022-12-18T21:33:45.542Z,13.37
2022-12-18T21:36:49.638Z,13.21
2022-12-18T21:39:55.296Z,13.11
2022-12-18T21:42:58.670Z,13.84
2022-12-18T21:46:01.832Z,14.01
2022-12-18T21:49:06.659Z,13.96
2022-12-18T21:52:09.966Z,13.19
2022-12-18T21:55:13.265Z,13.79
2022-12-18T21:58:16.428Z,14.36
2022-12-18T22:01:19.808Z,14.82
2022-12-18T22:04:23.558Z,14.36
2022-12-18T22:07:27.046Z,14.07
2022-12-18T22:10:30.149Z,13.58
2022-12-18T22:13:33.511Z,14.11
2022-12-18T22:16:37.052Z,13.69
2022-12-18T22:19:43.455Z,13.44
2022-12-18T22:22:46.999Z,13.40
2022-12-18T22:25:50.278Z,13.23
2022-12-18T22:28:53.573Z,13.02
2022-12-18T22:31:56.718Z,12.82
2022-12-18T22:35:06.864Z,12.61
2022-12-18T22:38:14.556Z,12.11
2022-12-18T22:41:18.036Z,11.98
2022-12-18T22:44:22.037Z,12.00
2022-12-18T22:47:29.436Z,11.54
2022-12-18T22:50:33.204Z,11.50
2022-12-18T22:53:36.406Z,11.45
2022-12-18T22:56:40.194Z,11.54
2022-12-18T22:59:43.440Z,11.35
2022-12-18T23:02:46.918Z,11.18
2022-12-18T23:05:50.201Z,11.11
2022-12-18T23:08:58.197Z,10.76
2022-12-18T23:12:01.763Z,10.92
2022-12-18T23:15:08.438Z,10.84
2022-12-18T23:18:11.661Z,10.81
2022-12-18T23:21:17.328Z,10.47
2022-12-18T23:24:21.719Z,10.25
2022-12-18T23:27:25.088Z,10.32
2022-12-18T23:30:29.546Z,10.08
2022-12-18T23:33:32.848Z,9.81
2022-12-18T23:36:46.406Z,9.65
2022-12-18T23:39:51.642Z,9.68
2022-12-18T23:42:55.502Z,9.43
2022-12-18T23:45:58.762Z,9.51
2022-12-18T23:49:03.713Z,9.46
2022-12-18T23:52:09.714Z,9.40
2022-12-18T23:55:13.060Z,9.27
2022-12-18T23:58:21.169Z,9.09
